createdAt,value
2018-07-25T06:21:57.763Z,0
2018-07-25T06:24:03.755Z,0
2018-07-25T06:26:31.776Z,0
2018-07-25T06:28:37.797Z,0
2018-07-25T06:30:43.666Z,0
2018-07-25T06:32:49.589Z,0
2018-07-25T06:34:55.858Z,0
2018-07-25T06:37:04.584Z,0
2018-07-25T06:39:10.750Z,0
2018-07-25T06:41:16.665Z,0
2018-07-25T06:43:22.884Z,0
2018-07-25T06:45:29.260Z,0
2018-07-25T06:47:35.584Z,0
2018-07-25T06:49:41.505Z,0
2018-07-25T06:51:47.571Z,0
2018-07-25T06:53:53.449Z,0
2018-07-25T06:55:59.527Z,0
2018-07-25T06:58:05.550Z,0
2018-07-25T07:00:11.463Z,0
2018-07-25T07:02:17.444Z,0
2018-07-25T07:04:23.395Z,0
2018-07-25T07:06:29.601Z,0
2018-07-25T07:08:38.010Z,0
2018-07-25T07:10:43.890Z,0
2018-07-25T07:12:49.914Z,0
2018-07-25T07:14:55.815Z,0
2018-07-25T07:17:01.768Z,0
2018-07-25T07:19:07.683Z,0
2018-07-25T07:21:13.674Z,0
2018-07-25T07:23:19.542Z,0
2018-07-25T07:25:25.528Z,0
2018-07-25T07:27:31.633Z,0
2018-07-25T07:29:37.589Z,0
2018-07-25T07:31:43.466Z,0
2018-07-25T07:33:49.388Z,0
2018-07-25T07:35:55.289Z,0
2018-07-25T07:38:01.482Z,0
2018-07-25T07:40:07.360Z,0
2018-07-25T07:42:13.406Z,0
2018-07-25T07:44:19.853Z,0
2018-07-25T07:46:25.765Z,16
2018-07-25T07:48:31.873Z,11
2018-07-25T07:50:37.838Z,12
2018-07-25T07:52:43.860Z,11
2018-07-25T07:54:49.846Z,10
2018-07-25T07:56:55.768Z,4
2018-07-25T07:59:01.837Z,3
2018-07-25T08:01:07.781Z,4
2018-07-25T08:03:13.732Z,5
2018-07-25T08:05:20.732Z,4
2018-07-25T08:07:29.973Z,4
2018-07-25T08:09:36.217Z,4
2018-07-25T08:11:42.127Z,0
2018-07-25T08:13:48.120Z,0
2018-07-25T08:15:54.180Z,0
2018-07-25T08:18:00.497Z,0
2018-07-25T08:20:06.971Z,0
2018-07-25T08:22:12.964Z,0
2018-07-25T08:24:18.928Z,0
2018-07-25T08:26:24.946Z,0
2018-07-25T08:28:32.143Z,0
2018-07-25T08:30:38.096Z,0
2018-07-25T08:31:58.857Z,0
2018-07-25T08:34:04.806Z,16
2018-07-25T08:36:10.693Z,8
2018-07-25T08:38:16.644Z,14
2018-07-25T08:40:22.531Z,15
2018-07-25T08:42:28.460Z,11
2018-07-25T08:44:34.763Z,12
2018-07-25T08:46:40.896Z,11
2018-07-25T08:48:46.819Z,12
2018-07-25T08:50:52.738Z,12
2018-07-25T08:52:58.827Z,12
2018-07-25T08:55:04.735Z,10
2018-07-25T08:57:10.627Z,10
2018-07-25T08:59:16.664Z,13
2018-07-25T09:01:22.696Z,12
2018-07-25T09:03:28.591Z,12
2018-07-25T09:05:34.473Z,12
2018-07-25T09:07:41.130Z,12
2018-07-25T09:09:47.681Z,11
2018-07-25T09:11:53.550Z,12
2018-07-25T09:13:59.580Z,12
2018-07-25T09:16:05.456Z,11
2018-07-25T09:18:11.499Z,0
2018-07-25T09:20:17.439Z,0
2018-07-25T09:22:23.315Z,0
2018-07-25T09:24:29.343Z,0
2018-07-25T09:26:35.296Z,0
2018-07-25T09:28:41.552Z,0
2018-07-25T09:30:47.635Z,0
2018-07-25T09:32:54.702Z,0
2018-07-25T09:35:00.728Z,0
2018-07-25T09:37:06.797Z,0
2018-07-25T09:39:12.934Z,0
2018-07-25T09:41:19.093Z,0
2018-07-25T09:43:25.250Z,0
2018-07-25T09:45:31.327Z,0
2018-07-25T09:47:39.870Z,0
2018-07-25T09:49:45.997Z,0
2018-07-25T09:51:52.156Z,0
2018-07-25T09:53:58.296Z,0
2018-07-25T09:56:06.686Z,0
2018-07-25T09:58:12.684Z,0
2018-07-25T10:00:18.835Z,0
2018-07-25T10:02:24.767Z,0
2018-07-25T10:04:30.923Z,0
2018-07-25T10:06:37.086Z,0
2018-07-25T10:08:45.286Z,0
2018-07-25T10:10:51.773Z,0
2018-07-25T10:12:57.948Z,0
2018-07-25T10:15:04.531Z,0
2018-07-25T10:17:11.224Z,0
2018-07-25T10:19:17.312Z,0
2018-07-25T10:21:25.071Z,0
2018-07-25T10:23:33.894Z,0
2018-07-25T10:25:39.890Z,0
2018-07-25T10:27:46.030Z,0
2018-07-25T10:29:52.100Z,0
2018-07-25T10:31:58.246Z,0
2018-07-25T10:34:04.502Z,0
2018-07-25T10:36:13.424Z,0
2018-07-25T10:38:19.619Z,0
2018-07-25T10:40:26.473Z,0
2018-07-25T10:42:32.777Z,0
2018-07-25T10:44:39.178Z,0
2018-07-25T10:46:45.747Z,0
2018-07-25T10:48:55.680Z,0
2018-07-25T10:51:01.973Z,0
2018-07-25T10:53:08.009Z,0
2018-07-25T10:55:14.069Z,0
2018-07-25T10:57:22.488Z,0
2018-07-25T10:59:30.575Z,0
2018-07-25T11:01:37.863Z,0
2018-07-25T12:48:10.752Z,0
2018-07-25T12:50:16.752Z,2
2018-07-25T12:52:23.672Z,2
2018-07-25T12:54:29.725Z,2
2018-07-25T12:56:36.072Z,5
2018-07-25T12:58:42.248Z,4
2018-07-25T13:00:48.252Z,4
2018-07-25T13:02:52.822Z,5
2018-07-25T13:04:58.596Z,6
2018-07-25T13:07:05.851Z,5
2018-07-25T13:09:10.188Z,0
2018-07-25T13:11:15.192Z,0
2018-07-25T13:13:19.629Z,0
2018-07-25T13:15:24.625Z,0
2018-07-25T13:17:30.692Z,0
2018-07-25T13:19:34.893Z,0
2018-07-25T13:21:39.314Z,0
2018-07-25T13:23:43.534Z,0
2018-07-25T13:25:48.367Z,0
2018-07-25T13:27:54.204Z,0
2018-07-25T13:29:58.428Z,0
2018-07-25T13:32:02.789Z,0
2018-07-25T13:34:07.042Z,0
2018-07-25T13:36:12.853Z,0
2018-07-25T13:38:18.304Z,0
2018-07-25T13:40:22.652Z,0
2018-07-25T13:42:26.864Z,0
2018-07-25T13:44:31.189Z,0
2018-07-25T13:46:36.106Z,0
2018-07-25T13:48:42.080Z,0
2018-07-25T13:50:46.473Z,0
2018-07-25T13:52:50.850Z,0
2018-07-25T13:54:55.465Z,0
2018-07-25T13:57:00.415Z,0
2018-07-25T13:59:06.390Z,0
2018-07-25T14:01:13.374Z,0
2018-07-25T14:03:17.679Z,0
2018-07-25T14:05:22.190Z,5
2018-07-25T14:07:27.231Z,5
2018-07-25T14:09:32.374Z,5
2018-07-25T14:11:36.927Z,5
2018-07-25T14:13:41.402Z,5
2018-07-25T14:15:45.714Z,5
2018-07-25T14:17:50.642Z,6
2018-07-25T14:19:56.412Z,5
2018-07-25T14:22:00.709Z,5
2018-07-25T14:24:05.557Z,5
2018-07-25T14:26:11.902Z,0
2018-07-25T14:28:16.516Z,0
2018-07-25T14:30:21.919Z,0
2018-07-25T14:32:27.533Z,0
2018-07-25T14:34:31.821Z,0
2018-07-25T14:36:36.354Z,0
2018-07-25T14:38:41.177Z,0
2018-07-25T14:40:46.092Z,0
2018-07-25T14:42:50.402Z,0
2018-07-25T14:44:54.722Z,0
2018-07-25T14:46:59.383Z,0
2018-07-25T14:49:05.192Z,0
2018-07-25T14:51:11.115Z,0
2018-07-25T14:53:15.985Z,0
2018-07-25T14:55:20.182Z,0
2018-07-25T14:57:24.518Z,0
2018-07-25T14:59:29.427Z,0
2018-07-25T15:01:35.895Z,0
2018-07-25T15:03:40.101Z,0
2018-07-25T15:05:44.434Z,0
2018-07-25T15:07:48.815Z,0
2018-07-25T15:09:53.573Z,0
2018-07-25T15:12:02.583Z,0
2018-07-25T15:14:06.808Z,0
2018-07-25T15:16:11.116Z,5
2018-07-25T15:18:15.364Z,5
2018-07-25T15:20:20.367Z,5
2018-07-25T15:22:27.232Z,5
2018-07-25T15:24:31.654Z,0
2018-07-25T15:26:35.835Z,0
2018-07-25T15:28:40.272Z,0
2018-07-25T15:30:44.590Z,0
2018-07-25T15:32:49.412Z,0
2018-07-25T15:34:53.947Z,0
2018-07-25T15:36:58.162Z,0
2018-07-25T15:39:03.087Z,0
2018-07-25T15:41:09.144Z,0
2018-07-25T15:43:13.345Z,0
2018-07-25T15:45:17.561Z,0
2018-07-25T15:47:21.904Z,0
2018-07-25T15:49:27.116Z,0
2018-07-25T15:51:34.188Z,0
2018-07-25T15:53:38.400Z,0
2018-07-25T15:55:42.716Z,0
2018-07-25T15:57:47.132Z,0
2018-07-25T15:59:52.114Z,0
2018-07-25T16:01:57.825Z,0
2018-07-25T16:04:02.225Z,0
2018-07-25T16:06:06.440Z,0
2018-07-25T16:08:10.743Z,0
2018-07-25T16:10:15.585Z,0
2018-07-25T16:12:21.423Z,0
2018-07-25T16:14:25.740Z,0
